createdAt,value
2018-11-23T00:00:49.378Z,101196.36
2018-11-23T00:03:19.408Z,101190.00
2018-11-23T00:05:50.426Z,101195.14
2018-11-23T00:08:20.295Z,101195.77
2018-11-23T00:10:50.361Z,101194.81
2018-11-23T00:13:20.147Z,101194.70
2018-11-23T00:15:50.286Z,101200.91
2018-11-23T00:18:20.095Z,101207.29
2018-11-23T00:20:50.208Z,101196.50
2018-11-23T00:23:20.105Z,101202.13
2018-11-23T00:25:50.163Z,101209.28
2018-11-23T00:28:20.242Z,101213.11
2018-11-23T00:30:51.519Z,101211.27
2018-11-23T00:33:21.270Z,101209.05
2018-11-23T00:35:51.114Z,101212.28
2018-11-23T00:38:21.571Z,101211.45
2018-11-23T00:40:51.342Z,101212.28
2018-11-23T00:43:21.258Z,101215.58
2018-11-23T00:45:56.308Z,101216.98
2018-11-23T00:48:26.468Z,101213.73
2018-11-23T00:50:56.503Z,101214.30
2018-11-23T00:53:26.455Z,101210.14
2018-11-23T00:55:56.318Z,101211.75
2018-11-23T00:58:26.117Z,101202.06
2018-11-23T01:00:56.266Z,101201.00
2018-11-23T01:03:26.025Z,101197.75
2018-11-23T01:05:56.228Z,101195.62
2018-11-23T01:08:26.347Z,101190.30
2018-11-23T01:10:56.583Z,101191.52
2018-11-23T01:13:27.529Z,101190.59
2018-11-23T01:15:57.262Z,101188.07
2018-11-23T01:18:27.231Z,101188.99
2018-11-23T01:20:57.330Z,101192.14
2018-11-23T01:23:27.474Z,101198.05
2018-11-23T01:25:57.595Z,101165.26
2018-11-23T01:28:27.561Z,101188.61
2018-11-23T01:30:57.291Z,101187.59
2018-11-23T01:33:27.294Z,101119.41
2018-11-23T01:35:57.395Z,101191.61
2018-11-23T01:38:27.403Z,101188.61
2018-11-23T01:40:57.347Z,101196.30
2018-11-23T01:43:27.535Z,101194.28
2018-11-23T01:45:57.337Z,101189.86
2018-11-23T01:48:27.286Z,101190.69
2018-11-23T01:50:57.047Z,101183.61
2018-11-23T01:53:27.131Z,101184.48
2018-11-23T01:55:57.210Z,101182.16
2018-11-23T01:58:27.323Z,101182.84
2018-11-23T02:00:57.883Z,101182.84
2018-11-23T02:03:27.718Z,101177.64
2018-11-23T02:05:57.534Z,101170.72
2018-11-23T02:08:27.408Z,101176.16
2018-11-23T02:10:57.420Z,101180.31
2018-11-23T02:13:27.392Z,101174.84
2018-11-23T02:15:57.472Z,101171.26
2018-11-23T02:18:27.267Z,101182.63
2018-11-23T02:20:57.724Z,101178.41
2018-11-23T02:23:27.641Z,101171.02
2018-11-23T02:25:57.366Z,101170.01
2018-11-23T02:28:27.443Z,101167.93
2018-11-23T02:30:57.544Z,101132.23
2018-11-23T02:33:28.557Z,101164.10
2018-11-23T02:35:58.391Z,101158.87
2018-11-23T02:38:28.164Z,101150.94
2018-11-23T02:40:58.312Z,101149.95
2018-11-23T02:43:28.127Z,101156.41
2018-11-23T02:45:58.363Z,101153.40
2018-11-23T02:48:28.290Z,101155.95
2018-11-23T02:50:58.127Z,101145.02
2018-11-23T02:53:39.857Z,101147.25
2018-11-23T02:56:10.493Z,101152.63
2018-11-23T02:58:40.354Z,101159.55
2018-11-23T03:01:10.349Z,101162.02
2018-11-23T03:03:40.545Z,101161.09
2018-11-23T03:06:10.642Z,101165.78
2018-11-23T03:08:40.407Z,101162.56
2018-11-23T03:11:10.608Z,101163.87
2018-11-23T03:13:40.688Z,101162.56
2018-11-23T03:16:10.502Z,101162.09
2018-11-23T03:18:40.415Z,101161.65
2018-11-23T03:21:10.359Z,101160.48
2018-11-23T03:23:40.552Z,101161.64
2018-11-23T03:26:10.422Z,101160.33
2018-11-23T03:28:41.591Z,101157.88
2018-11-23T03:31:12.421Z,101159.56
2018-11-23T03:33:41.155Z,101163.66
2018-11-23T03:36:11.245Z,101161.72
2018-11-23T03:38:41.613Z,101163.34
2018-11-23T03:41:11.510Z,101162.20
2018-11-23T03:43:41.446Z,101155.87
2018-11-23T03:46:11.362Z,101152.50
2018-11-23T03:48:41.283Z,101155.81
2018-11-23T03:51:11.368Z,101154.12
2018-11-23T03:53:41.639Z,101145.41
2018-11-23T03:56:12.066Z,101151.41
2018-11-23T03:58:42.398Z,101158.56
2018-11-23T04:01:12.582Z,101160.56
2018-11-23T04:03:42.406Z,101156.87
2018-11-23T04:06:12.263Z,101151.34
2018-11-23T04:08:42.369Z,101149.95
2018-11-23T04:11:12.698Z,101150.88
2018-11-23T04:13:42.452Z,101141.27
2018-11-23T04:16:12.442Z,101149.04
2018-11-23T04:18:42.237Z,101145.79
2018-11-23T04:21:12.039Z,101146.88
2018-11-23T04:23:42.651Z,101147.12
2018-11-23T04:26:12.416Z,101143.95
2018-11-23T04:28:42.465Z,101148.19
2018-11-23T04:31:12.465Z,101150.64
2018-11-23T04:33:42.193Z,101148.95
2018-11-23T04:36:12.410Z,101150.80
2018-11-23T04:38:42.182Z,101157.33
2018-11-23T04:41:12.263Z,101154.56
2018-11-23T04:43:42.263Z,101158.72
2018-11-23T04:46:12.514Z,101157.04
2018-11-23T04:48:43.614Z,101154.42
2018-11-23T04:51:13.381Z,101158.48
2018-11-23T04:53:43.331Z,101152.02
2018-11-23T04:56:13.499Z,101163.34
2018-11-23T04:58:43.251Z,101162.02
2018-11-23T05:01:13.586Z,101166.03
2018-11-23T05:03:43.354Z,101163.02
2018-11-23T05:06:14.704Z,101175.25
2018-11-23T05:08:44.523Z,101177.10
2018-11-23T05:11:14.352Z,101175.58
2018-11-23T05:13:44.155Z,101165.50
2018-11-23T05:16:14.191Z,101167.02
2018-11-23T05:18:44.340Z,101162.72
2018-11-23T05:21:14.127Z,101172.89
2018-11-23T05:23:44.267Z,101163.64
2018-11-23T05:26:14.273Z,101166.80
2018-11-23T05:28:44.359Z,101165.95
2018-11-23T05:31:25.775Z,101160.58
2018-11-23T05:33:55.524Z,101166.11
2018-11-23T05:36:25.493Z,101170.48
2018-11-23T05:38:55.242Z,101165.86
2018-11-23T05:41:25.417Z,101168.48
2018-11-23T05:43:55.657Z,101174.19
2018-11-23T05:46:25.427Z,101159.09
2018-11-23T05:48:55.454Z,101163.40
2018-11-23T05:51:25.421Z,101160.34
2018-11-23T05:53:55.471Z,101167.34
2018-11-23T05:56:25.489Z,101162.27
2018-11-23T05:58:55.454Z,101163.27
2018-11-23T06:01:26.616Z,101169.33
2018-11-23T06:03:56.388Z,101164.34
2018-11-23T06:06:26.122Z,101170.95
2018-11-23T06:08:56.289Z,101173.48
2018-11-23T06:11:26.095Z,101181.78
2018-11-23T06:13:56.176Z,101181.02
2018-11-23T06:16:26.240Z,101176.33
2018-11-23T06:18:56.315Z,101176.34
2018-11-23T06:21:26.033Z,101178.72
2018-11-23T06:23:56.234Z,101174.09
2018-11-23T06:26:28.499Z,101171.57
2018-11-23T06:28:58.818Z,101177.25
2018-11-23T06:31:28.707Z,101175.27
2018-11-23T06:33:58.494Z,101183.56
2018-11-23T06:36:28.506Z,101188.48
2018-11-23T06:38:58.338Z,101190.97
2018-11-23T06:41:28.354Z,101190.56
2018-11-23T06:43:58.426Z,101184.25
2018-11-23T06:46:28.325Z,101189.25
2018-11-23T06:48:58.042Z,101190.02
2018-11-23T06:51:28.129Z,101184.95
2018-11-23T06:53:58.166Z,101191.55
2018-11-23T06:56:28.254Z,101187.73
2018-11-23T06:58:58.430Z,101190.63
2018-11-23T07:01:28.499Z,101194.49
2018-11-23T07:03:58.242Z,101191.88
2018-11-23T07:06:29.318Z,101195.97
2018-11-23T07:08:59.199Z,101195.27
2018-11-23T07:11:29.105Z,101190.73
2018-11-23T07:14:03.914Z,101200.05
2018-11-23T07:16:29.151Z,101195.74
2018-11-23T07:18:59.299Z,101204.04
2018-11-23T07:21:29.215Z,101210.52
2018-11-23T07:23:59.067Z,101205.20
2018-11-23T07:26:29.158Z,101210.37
2018-11-23T07:28:59.236Z,101206.34
2018-11-23T07:31:29.462Z,101212.34
2018-11-23T07:33:59.241Z,101212.41
2018-11-23T07:36:29.423Z,101215.58
2018-11-23T07:39:00.522Z,101212.95
2018-11-23T07:41:41.010Z,101217.75
2018-11-23T07:44:11.216Z,101217.36
2018-11-23T07:46:41.148Z,101217.66
2018-11-23T07:49:11.141Z,101217.59
2018-11-23T07:51:41.123Z,101217.59
2018-11-23T07:54:11.139Z,101222.34
2018-11-23T07:56:41.186Z,101219.73
2018-11-23T07:59:11.083Z,101211.49
2018-11-23T08:01:42.763Z,101226.21
2018-11-23T08:04:12.473Z,101221.48
2018-11-23T08:06:42.241Z,101230.20
2018-11-23T08:09:12.341Z,101226.79
2018-11-23T08:11:42.052Z,101227.66
2018-11-23T08:14:12.149Z,101230.50
2018-11-23T08:16:42.416Z,101223.25
2018-11-23T08:19:12.339Z,101226.31
2018-11-23T08:21:42.094Z,101224.62
2018-11-23T08:24:12.120Z,101227.08
2018-11-23T08:26:42.189Z,101225.06
2018-11-23T08:29:12.167Z,101224.68
2018-11-23T08:31:42.143Z,101220.43
2018-11-23T08:34:13.326Z,101221.13
2018-11-23T08:36:43.150Z,101214.74
2018-11-23T08:39:13.290Z,101218.51
2018-11-23T08:41:45.111Z,101211.96
2018-11-23T08:44:15.142Z,101214.80
2018-11-23T08:46:45.315Z,101208.30
2018-11-23T08:49:15.629Z,101206.62
2018-11-23T08:51:46.698Z,101207.55
2018-11-23T08:54:16.517Z,101204.98
2018-11-23T08:56:46.347Z,101199.57
2018-11-23T08:59:16.456Z,101194.11
2018-11-23T09:01:46.415Z,101197.71
2018-11-23T09:04:16.177Z,101195.55
2018-11-23T09:06:46.385Z,101195.20
2018-11-23T09:09:16.210Z,101199.77
2018-11-23T09:11:46.162Z,101199.12
2018-11-23T09:14:16.181Z,101189.23
2018-11-23T09:16:46.521Z,101197.09
2018-11-23T09:19:16.355Z,101190.09
2018-11-23T09:21:46.875Z,101177.64
2018-11-23T09:24:16.886Z,101182.50
2018-11-23T09:26:46.799Z,101171.89
2018-11-23T09:29:16.590Z,101172.82
2018-11-23T09:31:46.596Z,101172.03
2018-11-23T09:34:16.639Z,101170.78
2018-11-23T09:36:46.617Z,101172.13
2018-11-23T09:39:16.641Z,101171.20
2018-11-23T09:41:46.617Z,101168.41
2018-11-23T09:44:23.785Z,101162.06
2018-11-23T09:46:53.505Z,101157.95
2018-11-23T09:49:23.332Z,101156.81
2018-11-23T09:51:56.669Z,101163.20
2018-11-23T09:54:27.207Z,101154.97
2018-11-23T09:57:00.449Z,101155.08
2018-11-23T09:59:32.654Z,101151.02
2018-11-23T10:02:06.887Z,101155.38
2018-11-23T10:04:39.803Z,101153.31
2018-11-23T10:07:10.099Z,101153.14
2018-11-23T10:09:41.377Z,101145.41
2018-11-23T10:12:11.241Z,101146.88
2018-11-23T10:14:41.300Z,101139.11
2018-11-23T10:17:11.438Z,101136.84
2018-11-23T10:19:41.878Z,101140.98
2018-11-23T10:22:11.558Z,101139.05
2018-11-23T10:24:41.431Z,101135.19
2018-11-23T10:27:12.520Z,101134.08
2018-11-23T10:29:42.332Z,101131.38
2018-11-23T10:32:12.171Z,101133.09
2018-11-23T10:34:42.190Z,101127.77
2018-11-23T10:37:12.294Z,101129.16
2018-11-23T10:39:42.362Z,101125.42
2018-11-23T10:42:14.496Z,101120.73
2018-11-23T10:44:45.076Z,101114.48
2018-11-23T10:47:21.835Z,101115.80
2018-11-23T10:49:51.627Z,101112.98
2018-11-23T10:52:21.458Z,101102.48
2018-11-23T10:54:51.367Z,101100.42
2018-11-23T10:57:21.423Z,101055.59
2018-11-23T10:59:51.429Z,101098.17
2018-11-23T11:02:26.320Z,101094.42
2018-11-23T11:05:30.509Z,101098.24
2018-11-23T11:08:02.017Z,101098.83
2018-11-23T11:10:32.342Z,101101.74
2018-11-23T11:13:02.345Z,101091.69
2018-11-23T11:15:32.197Z,101086.68
2018-11-23T11:18:12.560Z,101081.20
2018-11-23T11:20:42.319Z,101080.23
2018-11-23T11:23:12.528Z,101080.02
2018-11-23T11:25:42.340Z,101075.67
2018-11-23T11:28:12.090Z,101074.06
2018-11-23T11:30:42.945Z,101076.34
2018-11-23T11:33:12.980Z,101073.14
2018-11-23T11:35:42.961Z,101069.20
2018-11-23T11:38:13.119Z,101063.90
2018-11-23T11:40:43.311Z,101067.39
2018-11-23T11:43:13.467Z,101064.63
2018-11-23T11:45:43.429Z,101059.17
2018-11-23T11:48:13.295Z,101059.00
2018-11-23T11:50:43.070Z,101060.23
2018-11-23T11:53:13.109Z,101051.34
2018-11-23T11:55:43.119Z,101047.77
2018-11-23T11:58:13.180Z,101056.86
2018-11-23T12:00:43.233Z,101058.95
2018-11-23T12:03:14.659Z,101055.49
2018-11-23T12:05:44.589Z,101050.80
2018-11-23T12:08:14.444Z,101049.64
2018-11-23T12:10:44.273Z,101051.45
2018-11-23T12:13:14.526Z,101046.59
2018-11-23T12:15:44.438Z,101041.39
2018-11-23T12:18:14.634Z,101043.08
2018-11-23T12:20:44.458Z,101045.01
2018-11-23T12:23:14.328Z,101042.81
2018-11-23T12:25:44.436Z,101031.91
2018-11-23T12:28:14.837Z,101034.20
2018-11-23T12:30:44.904Z,101028.72
2018-11-23T12:33:14.761Z,101022.72
2018-11-23T12:35:45.751Z,101027.16
2018-11-23T12:38:15.550Z,101028.50
2018-11-23T12:40:45.564Z,101025.41
2018-11-23T12:43:15.423Z,101022.05
2018-11-23T12:45:45.516Z,101016.34
2018-11-23T12:48:15.460Z,101015.79
2018-11-23T12:50:45.462Z,101011.67
2018-11-23T12:53:16.568Z,101009.92
2018-11-23T12:55:46.333Z,101010.65
2018-11-23T12:58:16.173Z,101005.97
2018-11-23T13:00:46.122Z,101009.34
2018-11-23T13:03:16.233Z,101002.81
2018-11-23T13:05:46.391Z,101000.03
2018-11-23T13:08:17.480Z,101000.63
2018-11-23T13:10:47.427Z,100999.58
2018-11-23T13:13:17.188Z,100997.25
2018-11-23T13:15:47.363Z,100995.59
2018-11-23T13:18:17.403Z,100990.88
2018-11-23T13:20:47.385Z,100991.69
2018-11-23T13:23:17.591Z,100982.56
2018-11-23T13:25:48.175Z,100987.15
2018-11-23T13:28:18.188Z,100938.70
2018-11-23T13:30:48.159Z,100978.37
2018-11-23T13:33:18.256Z,100977.29
2018-11-23T13:35:48.460Z,100987.59
2018-11-23T13:38:18.407Z,100981.38
2018-11-23T13:40:49.672Z,100975.16
2018-11-23T13:43:19.436Z,100976.38
2018-11-23T13:45:49.396Z,100974.58
2018-11-23T13:48:20.048Z,100970.97
2018-11-23T13:50:49.392Z,100974.05
2018-11-23T13:53:19.292Z,100972.28
2018-11-23T13:55:54.571Z,100967.81
2018-11-23T13:58:24.559Z,100961.02
2018-11-23T14:00:54.341Z,100959.77
2018-11-23T14:03:24.280Z,100964.14
2018-11-23T14:05:54.285Z,100964.60
2018-11-23T14:08:24.059Z,100961.88
2018-11-23T14:10:57.984Z,100951.66
2018-11-23T14:13:28.151Z,100957.41
2018-11-23T14:15:58.283Z,100950.46
2018-11-23T14:18:29.495Z,100953.34
2018-11-23T14:20:59.368Z,100952.23
2018-11-23T14:23:29.158Z,100954.66
2018-11-23T14:25:59.267Z,100950.67
2018-11-23T14:28:34.510Z,100952.94
2018-11-23T14:31:04.986Z,100955.36
2018-11-23T14:33:35.120Z,100959.61
2018-11-23T14:36:05.095Z,100954.07
2018-11-23T14:38:36.539Z,100959.09
2018-11-23T14:41:06.351Z,100960.41
2018-11-23T14:43:36.104Z,100951.78
2018-11-23T14:46:06.584Z,100954.28
2018-11-23T14:48:38.421Z,100953.46
2018-11-23T14:51:08.290Z,100955.02
2018-11-23T14:53:38.617Z,100953.67
2018-11-23T14:56:09.453Z,100943.66
2018-11-23T14:58:50.042Z,100953.37
2018-11-23T15:01:20.363Z,100951.10
2018-11-23T15:03:50.445Z,100943.66
2018-11-23T15:06:21.134Z,100934.09
2018-11-23T15:08:51.364Z,100932.52
2018-11-23T15:11:21.150Z,100928.30
2018-11-23T15:13:51.308Z,100938.52
2018-11-23T15:16:21.394Z,100938.67
2018-11-23T15:18:51.339Z,100928.15
2018-11-23T15:21:21.113Z,100922.82
2018-11-23T15:23:51.134Z,100919.58
2018-11-23T15:26:21.303Z,100908.69
2018-11-23T15:28:51.436Z,100904.83
2018-11-23T15:31:21.570Z,100908.37
2018-11-23T15:33:51.830Z,100910.00
2018-11-23T15:36:22.113Z,100914.47
2018-11-23T15:38:52.275Z,100921.56
2018-11-23T15:41:22.117Z,100827.72
2018-11-23T15:43:52.295Z,100913.95
2018-11-23T15:46:22.666Z,100907.73
2018-11-23T15:48:52.856Z,100905.56
2018-11-23T15:51:25.316Z,100901.95
2018-11-23T15:53:55.986Z,100902.90
2018-11-23T15:56:26.392Z,100905.53
2018-11-23T15:58:56.196Z,100912.11
2018-11-23T16:01:26.354Z,100908.41
2018-11-23T16:03:56.669Z,100899.62
2018-11-23T16:06:26.793Z,100890.47
2018-11-23T16:08:56.843Z,100882.58
2018-11-23T16:11:26.735Z,100881.84
2018-11-23T16:13:56.610Z,100890.78
2018-11-23T16:16:26.483Z,100897.78
2018-11-23T16:18:56.517Z,100897.20
2018-11-23T16:21:26.466Z,100899.47
2018-11-23T16:23:56.424Z,100893.17
2018-11-23T16:26:26.782Z,100882.28
2018-11-23T16:28:56.647Z,100886.25
2018-11-23T16:31:26.672Z,100886.44
2018-11-23T16:33:56.551Z,100884.69
2018-11-23T16:36:26.894Z,100883.02
2018-11-23T16:38:57.368Z,100884.84
2018-11-23T16:41:27.467Z,100895.06
2018-11-23T16:43:57.364Z,100891.27
2018-11-23T16:46:27.159Z,100894.63
2018-11-23T16:48:57.511Z,100885.80
2018-11-23T16:51:27.380Z,100887.75
2018-11-23T16:53:57.803Z,100884.20
2018-11-23T16:56:27.718Z,100884.33
2018-11-23T16:58:57.484Z,100886.47
2018-11-23T17:01:27.651Z,100886.22
2018-11-23T17:03:57.610Z,100881.78
2018-11-23T17:06:27.423Z,100879.37
2018-11-23T17:08:57.541Z,100868.91
2018-11-23T17:11:27.511Z,100868.97
2018-11-23T17:13:57.359Z,100863.86
2018-11-23T17:16:27.374Z,100866.48
2018-11-23T17:18:57.371Z,100867.80
2018-11-23T17:21:27.439Z,100867.89
2018-11-23T17:23:57.608Z,100862.39
2018-11-23T17:26:27.541Z,100873.50
2018-11-23T17:28:57.373Z,100860.70
2018-11-23T17:31:27.628Z,100850.11
2018-11-23T17:33:57.508Z,100844.42
2018-11-23T17:36:27.950Z,100849.53
2018-11-23T17:38:58.238Z,100852.38
2018-11-23T17:41:28.330Z,100848.28
2018-11-23T17:43:58.502Z,100850.18
2018-11-23T17:46:28.670Z,100851.67
2018-11-23T17:48:59.518Z,100851.67
2018-11-23T17:51:29.572Z,100853.33
2018-11-23T17:53:59.454Z,100855.96
2018-11-23T17:56:29.587Z,100857.80
2018-11-23T17:58:59.439Z,100858.38
2018-11-23T18:01:29.223Z,100856.11
2018-11-23T18:03:59.448Z,100848.50
2018-11-23T18:06:29.270Z,100837.97
2018-11-23T18:08:59.478Z,100840.20
2018-11-23T18:11:29.345Z,100846.33
2018-11-23T18:13:59.335Z,100841.34
2018-11-23T18:16:29.231Z,100834.18
2018-11-23T18:18:59.416Z,100831.11
2018-11-23T18:21:30.688Z,100836.90
2018-11-23T18:24:00.692Z,100832.22
2018-11-23T18:26:30.536Z,100827.23
2018-11-23T18:29:00.544Z,100829.50
2018-11-23T18:31:30.413Z,100828.00
2018-11-23T18:34:00.555Z,100821.27
2018-11-23T18:36:30.727Z,100816.86
2018-11-23T18:39:00.911Z,100818.53
2018-11-23T18:41:31.029Z,100813.37
2018-11-23T18:44:01.421Z,100810.75
2018-11-23T18:46:31.521Z,100812.76
2018-11-23T18:49:01.476Z,100808.17
2018-11-23T18:51:31.504Z,100811.48
2018-11-23T18:54:02.591Z,100809.56
2018-11-23T18:56:32.322Z,100801.39
2018-11-23T18:59:02.218Z,100803.66
2018-11-23T19:01:32.285Z,100805.70
2018-11-23T19:04:02.393Z,100806.87
2018-11-23T19:06:32.382Z,100810.23
2018-11-23T19:09:02.837Z,100807.45
2018-11-23T19:11:32.755Z,100809.65
2018-11-23T19:14:02.818Z,100807.02
2018-11-23T19:16:33.123Z,100815.27
2018-11-23T19:19:03.326Z,100814.91
2018-11-23T19:21:33.357Z,100821.61
2018-11-23T19:24:03.428Z,100818.34
2018-11-23T19:26:33.247Z,100816.87
2018-11-23T19:29:03.154Z,100819.01
2018-11-23T19:31:33.449Z,100816.16
2018-11-23T19:34:03.595Z,100813.72
2018-11-23T19:36:33.444Z,100810.08
2018-11-23T19:39:03.483Z,100803.80
2018-11-23T19:41:33.330Z,100799.05
2018-11-23T19:44:03.234Z,100786.04
2018-11-23T19:46:33.333Z,100787.72
2018-11-23T19:49:03.120Z,100778.78
2018-11-23T19:51:33.696Z,100777.25
2018-11-23T19:54:03.639Z,100773.41
2018-11-23T19:56:37.438Z,100769.09
2018-11-23T19:59:11.404Z,100764.10
2018-11-23T20:01:46.246Z,100762.66
2018-11-23T20:04:17.253Z,100737.96
2018-11-23T20:06:47.513Z,100750.67
2018-11-23T20:09:17.376Z,100755.20
2018-11-23T20:11:47.215Z,100746.95
2018-11-23T20:14:21.022Z,100751.63
2018-11-23T20:16:51.066Z,100739.41
2018-11-23T20:19:21.320Z,100734.75
2018-11-23T20:21:51.366Z,100732.11
2018-11-23T20:24:21.595Z,100729.31
2018-11-23T20:26:51.435Z,100725.45
2018-11-23T20:29:21.464Z,100721.59
2018-11-23T20:31:51.439Z,100721.58
2018-11-23T20:34:21.480Z,100721.36
2018-11-23T20:36:51.459Z,100725.01
2018-11-23T20:39:21.492Z,100714.22
2018-11-23T20:41:51.363Z,100710.78
2018-11-23T20:47:41.677Z,100710.64
2018-11-23T20:50:12.916Z,100710.48
2018-11-23T20:52:43.165Z,100706.69
2018-11-23T20:55:14.549Z,100712.23
2018-11-23T20:57:44.342Z,100704.94
2018-11-23T21:00:16.713Z,100707.56
2018-11-23T21:02:47.759Z,100707.05
2018-11-23T21:05:18.777Z,100710.41
2018-11-23T21:07:48.579Z,100712.31
2018-11-23T21:10:22.655Z,100710.19
2018-11-23T21:12:52.530Z,100704.69
2018-11-23T21:15:24.765Z,100710.91
2018-11-23T21:17:54.561Z,100706.01
2018-11-23T21:20:24.455Z,100704.78
2018-11-23T21:22:54.657Z,100701.13
2018-11-23T21:25:24.591Z,100700.91
2018-11-23T21:27:54.478Z,100693.75
2018-11-23T21:30:37.273Z,100690.08
2018-11-23T21:33:07.359Z,100690.39
2018-11-23T21:35:37.415Z,100688.80
2018-11-23T21:38:08.541Z,100688.64
2018-11-23T21:40:44.112Z,100684.09
2018-11-23T21:43:08.316Z,100677.03
2018-11-23T21:45:38.267Z,100677.16
2018-11-23T21:48:08.087Z,100677.98
2018-11-23T21:50:47.023Z,100674.41
2018-11-23T21:53:17.343Z,100675.86
2018-11-23T21:55:47.447Z,100671.55
2018-11-23T21:58:17.591Z,100673.60
2018-11-23T22:00:47.423Z,100666.13
2018-11-23T22:03:17.345Z,100666.81
2018-11-23T22:05:47.111Z,100666.88
2018-11-23T22:08:17.290Z,100658.56
2018-11-23T22:10:47.224Z,100659.85
2018-11-23T22:13:17.127Z,100650.28
2018-11-23T22:15:47.313Z,100638.69
2018-11-23T22:18:17.137Z,100636.06
2018-11-23T22:20:47.200Z,100632.70
2018-11-23T22:23:17.431Z,100632.78
2018-11-23T22:25:47.839Z,100631.97
2018-11-23T22:28:18.027Z,100618.97
2018-11-23T22:30:48.533Z,100616.70
2018-11-23T22:33:18.332Z,100615.61
2018-11-23T22:35:48.431Z,100615.38
2018-11-23T22:38:18.427Z,100605.91
2018-11-23T22:40:49.020Z,100600.65
2018-11-23T22:43:19.736Z,100604.59
2018-11-23T22:45:49.702Z,100610.36
2018-11-23T22:48:19.585Z,100596.84
2018-11-23T22:50:49.432Z,100599.02
2018-11-23T22:53:19.397Z,100599.52
2018-11-23T22:55:49.744Z,100588.88
2018-11-23T22:58:19.775Z,100583.02
2018-11-23T23:00:49.757Z,100579.90
2018-11-23T23:03:19.609Z,100572.51
2018-11-23T23:05:49.538Z,100558.87
2018-11-23T23:08:19.618Z,100563.91
2018-11-23T23:10:49.606Z,100553.75
2018-11-23T23:13:19.469Z,100553.88
2018-11-23T23:15:49.392Z,100548.84
2018-11-23T23:18:19.568Z,100542.50
2018-11-23T23:20:49.535Z,100541.78
2018-11-23T23:23:19.293Z,100539.38
2018-11-23T23:25:49.543Z,100539.38
2018-11-23T23:28:19.388Z,100537.46
2018-11-23T23:30:49.421Z,100528.36
2018-11-23T23:33:19.470Z,100525.73
2018-11-23T23:35:49.284Z,100520.52
2018-11-23T23:38:19.230Z,100522.52
2018-11-23T23:40:49.040Z,100521.92
2018-11-23T23:43:19.087Z,100525.41
2018-11-23T23:45:49.181Z,100525.27
2018-11-23T23:48:19.343Z,100530.47
2018-11-23T23:50:50.579Z,100528.89
2018-11-23T23:53:20.342Z,100538.31
2018-11-23T23:55:50.314Z,100539.55
2018-11-23T23:58:20.414Z,100512.60
